aviador You're here:

RJCK Decoded Metar

KUSHIRO AIRPORT in JAPAN
Report Time2018-04-23 21:45:00
UTC Time2018-04-23 22:55:34
Flight Rules Old
Wind010° at 03 kt
W.Decomp.*RWY 35: 2.6 kt HW 1.4 kt RCW
W.Rank010° ranks 12
Current wind is below 010° avg. (7.8)
Visibility9999 m
Phenomena:N/A
Clouds:Few 005 Hf
Broken 008 Hf
Broken 012 Hf
Expected CloudBase > 800 ft AGL from Temp-Dew spread
Ceiling800 ft
Temp05°C (ISA -9)
Dew Point03°C (87% RH)
AAT2.4°C
QNH1024 hPa
Density Alt-1,076 ft
Elevation322 ft
Report Wrong Elevation
Raw Report
RJCK 232145Z 01003KT 9999 FEW005 BKN008 BKN012 05/03 Q1024 RMK
1ST005 5ST008 7ST012 A3024=

Extra information for RJCK:More info

Metar Taf Metar & Taf Last 4 Metars F.Rules Stats Wind Profile Meteogram Temp Stats Airport Information Weather charts Add Link Nearby VenuesMetar ALERT Operation Metar Decoded Social comments